createdAt,value
2023-06-12T00:00:13.972Z,48.26
2023-06-12T00:02:42.271Z,48.32
2023-06-12T00:05:11.440Z,49.38
2023-06-12T00:07:39.545Z,50.09
2023-06-12T00:10:10.879Z,50.26
2023-06-12T00:12:42.170Z,50.54
2023-06-12T00:15:10.609Z,50.72
2023-06-12T00:17:40.129Z,50.75
2023-06-12T00:20:09.691Z,50.50
2023-06-12T00:22:41.281Z,50.92
2023-06-12T00:25:10.606Z,51.53
2023-06-12T00:27:38.566Z,51.09
2023-06-12T00:30:08.154Z,51.58
2023-06-12T00:32:37.077Z,50.79
2023-06-12T00:35:07.902Z,50.68
2023-06-12T00:37:37.201Z,50.92
2023-06-12T00:40:06.288Z,50.57
2023-06-12T00:42:35.443Z,50.60
2023-06-12T00:45:03.664Z,50.61
2023-06-12T00:47:38.472Z,50.89
2023-06-12T00:50:14.348Z,51.37
2023-06-12T00:52:47.162Z,51.14
2023-06-12T00:55:19.808Z,51.79
2023-06-12T00:57:50.949Z,51.94
2023-06-12T01:00:20.440Z,52.14
2023-06-12T01:02:52.880Z,52.80
2023-06-12T01:05:30.291Z,53.72
2023-06-12T01:08:10.595Z,53.05
2023-06-12T01:10:43.485Z,54.05
2023-06-12T01:13:13.092Z,54.03
2023-06-12T01:15:46.140Z,54.47
2023-06-12T01:18:14.264Z,55.30
2023-06-12T01:20:46.408Z,55.01
2023-06-12T01:23:24.332Z,55.08
2023-06-12T01:26:22.841Z,56.08
2023-06-12T01:29:28.643Z,56.13
2023-06-12T01:32:05.455Z,56.24
2023-06-12T01:34:39.455Z,56.17
2023-06-12T01:37:17.754Z,56.15
2023-06-12T01:39:57.797Z,56.28
2023-06-12T01:42:28.230Z,56.63
2023-06-12T01:44:56.501Z,57.00
2023-06-12T01:47:26.079Z,56.22
2023-06-12T01:49:54.343Z,56.48
2023-06-12T01:52:22.467Z,57.05
2023-06-12T01:54:51.068Z,57.74
2023-06-12T01:57:20.867Z,57.58
2023-06-12T01:59:49.469Z,57.79
2023-06-12T02:02:18.057Z,58.09
2023-06-12T02:04:49.943Z,58.43
2023-06-12T02:07:18.722Z,58.03
2023-06-12T02:09:47.988Z,57.74
2023-06-12T02:12:15.945Z,59.01
2023-06-12T02:14:44.114Z,59.00
2023-06-12T02:17:15.378Z,58.35
2023-06-12T02:19:43.807Z,58.41
2023-06-12T02:22:13.403Z,58.96
2023-06-12T02:24:41.813Z,59.08
2023-06-12T02:27:11.425Z,59.50
2023-06-12T02:29:39.408Z,59.82
2023-06-12T02:32:09.076Z,59.27
2023-06-12T02:34:38.163Z,59.54
2023-06-12T02:37:11.959Z,59.56
2023-06-12T02:39:45.814Z,59.29
2023-06-12T02:42:13.892Z,59.23
2023-06-12T02:44:42.085Z,59.86
2023-06-12T02:47:10.188Z,59.68
2023-06-12T02:49:38.962Z,59.85
2023-06-12T02:52:08.305Z,60.12
2023-06-12T02:54:37.577Z,59.71
2023-06-12T02:57:07.776Z,59.30
2023-06-12T02:59:36.077Z,59.82
2023-06-12T03:02:05.141Z,59.40
2023-06-12T03:04:34.478Z,59.33
2023-06-12T03:07:07.046Z,58.89
2023-06-12T03:09:35.918Z,58.99
2023-06-12T03:12:04.467Z,59.11
2023-06-12T03:14:35.169Z,59.02
2023-06-12T03:17:03.651Z,59.32
2023-06-12T03:19:31.719Z,60.04
2023-06-12T03:22:02.158Z,59.40
2023-06-12T03:24:31.080Z,59.77
2023-06-12T03:27:02.594Z,59.69
2023-06-12T03:29:30.623Z,59.30
2023-06-12T03:32:00.692Z,62.90
2023-06-12T03:34:32.567Z,68.20
2023-06-12T03:37:00.562Z,68.84
2023-06-12T03:39:28.504Z,68.74
2023-06-12T03:42:00.581Z,69.77
2023-06-12T03:44:28.568Z,69.24
2023-06-12T03:46:56.641Z,69.56
2023-06-12T03:49:29.982Z,69.24
2023-06-12T03:51:57.952Z,70.14
2023-06-12T03:54:26.281Z,69.13
2023-06-12T03:56:55.793Z,69.69
2023-06-12T03:59:23.755Z,68.59
2023-06-12T04:01:54.013Z,68.90
2023-06-12T04:04:22.029Z,68.38
2023-06-12T04:06:51.766Z,68.86
2023-06-12T04:09:19.772Z,68.91
2023-06-12T04:11:48.855Z,68.90
2023-06-12T04:14:16.863Z,68.34
2023-06-12T04:16:44.811Z,69.26
2023-06-12T04:19:13.628Z,69.17
2023-06-12T04:21:41.746Z,68.56
2023-06-12T04:24:16.969Z,68.85
2023-06-12T04:26:47.494Z,68.29
2023-06-12T04:29:16.430Z,67.71
2023-06-12T04:31:45.024Z,68.39
2023-06-12T04:34:17.599Z,68.54
2023-06-12T04:36:46.585Z,68.10
2023-06-12T04:39:16.236Z,66.93
2023-06-12T04:41:44.291Z,67.58
2023-06-12T04:44:12.500Z,67.65
2023-06-12T04:46:41.084Z,66.34
2023-06-12T04:49:11.664Z,65.29
2023-06-12T04:51:40.253Z,64.96
2023-06-12T04:54:11.326Z,65.03
2023-06-12T04:56:46.239Z,66.14
2023-06-12T04:59:17.963Z,65.11
2023-06-12T05:01:47.331Z,65.18
2023-06-12T05:04:15.435Z,64.68
2023-06-12T05:06:43.469Z,63.88
2023-06-12T05:09:11.518Z,62.09
2023-06-12T05:11:40.874Z,61.30
2023-06-12T05:14:09.116Z,60.83
2023-06-12T05:16:37.210Z,60.56
2023-06-12T05:19:05.215Z,60.88
2023-06-12T05:21:33.210Z,59.50
2023-06-12T05:24:01.359Z,60.73
2023-06-12T05:26:29.443Z,58.00
2023-06-12T05:28:58.791Z,57.85
2023-06-12T05:31:27.272Z,56.00
2023-06-12T05:33:55.031Z,56.11
2023-06-12T05:36:23.140Z,54.92
2023-06-12T05:38:51.091Z,52.91
2023-06-12T05:41:19.261Z,52.67
2023-06-12T05:43:47.536Z,52.69
2023-06-12T05:46:17.046Z,51.19
2023-06-12T05:48:45.331Z,51.15
2023-06-12T05:51:13.275Z,50.88
2023-06-12T05:53:45.764Z,49.14
2023-06-12T05:56:15.188Z,51.06
2023-06-12T05:58:43.526Z,50.08
2023-06-12T06:01:13.002Z,49.03
2023-06-12T06:03:43.996Z,47.87
2023-06-12T06:06:14.198Z,43.31
2023-06-12T06:08:42.856Z,44.25
2023-06-12T06:11:10.842Z,43.43
2023-06-12T06:13:39.073Z,43.45
2023-06-12T06:16:10.650Z,42.53
2023-06-12T06:18:39.305Z,41.50
2023-06-12T06:21:09.918Z,43.93
2023-06-12T06:23:38.072Z,42.12
2023-06-12T06:26:06.927Z,40.82
2023-06-12T06:28:35.026Z,41.14
2023-06-12T06:31:04.714Z,41.22
2023-06-12T06:33:33.707Z,40.17
2023-06-12T06:36:01.701Z,39.47
2023-06-12T06:38:31.149Z,39.35
2023-06-12T06:41:00.529Z,40.86
2023-06-12T06:43:28.771Z,41.33
2023-06-12T06:45:56.828Z,39.14
2023-06-12T06:48:24.798Z,38.77
2023-06-12T06:50:52.884Z,38.60
2023-06-12T06:53:21.065Z,37.94
2023-06-12T06:55:50.439Z,38.23
2023-06-12T06:58:18.395Z,40.32
2023-06-12T07:00:46.614Z,41.69
2023-06-12T07:03:16.398Z,41.86
2023-06-12T07:05:44.476Z,42.30
2023-06-12T07:08:12.441Z,41.81
2023-06-12T07:10:40.448Z,42.45
2023-06-12T07:13:09.900Z,41.72
2023-06-12T07:15:37.920Z,41.36
2023-06-12T07:18:08.740Z,41.96
2023-06-12T07:20:36.832Z,43.36
2023-06-12T07:23:04.919Z,42.56
2023-06-12T07:25:32.899Z,40.84
2023-06-12T07:28:00.883Z,40.28
2023-06-12T07:30:30.680Z,40.70
2023-06-12T07:32:58.956Z,42.50
2023-06-12T07:35:26.806Z,42.45
2023-06-12T07:37:54.735Z,42.08
2023-06-12T07:40:22.788Z,43.15
2023-06-12T07:42:50.877Z,43.87
2023-06-12T07:45:18.902Z,43.89
2023-06-12T07:47:48.926Z,40.40
2023-06-12T07:50:17.015Z,41.96
2023-06-12T07:52:46.285Z,42.99
2023-06-12T07:55:15.921Z,41.96
2023-06-12T07:57:43.965Z,40.53
2023-06-12T08:00:13.049Z,40.49
2023-06-12T08:02:42.234Z,39.74
2023-06-12T08:05:13.142Z,39.53
2023-06-12T08:07:42.376Z,40.34
2023-06-12T08:10:10.755Z,39.69
2023-06-12T08:12:39.258Z,40.83
2023-06-12T08:15:09.077Z,40.75
2023-06-12T08:17:38.277Z,39.12
2023-06-12T08:20:09.684Z,38.52
2023-06-12T08:22:39.667Z,40.17
2023-06-12T08:25:19.610Z,37.24
2023-06-12T08:27:47.675Z,37.39
2023-06-12T08:30:17.796Z,36.07
2023-06-12T08:32:47.143Z,36.55
2023-06-12T08:35:19.407Z,36.63
2023-06-12T08:37:48.791Z,36.03
2023-06-12T08:40:17.242Z,36.11
2023-06-12T08:42:51.058Z,34.57
2023-06-12T08:45:22.440Z,33.75
2023-06-12T08:47:51.233Z,33.12
2023-06-12T08:50:20.424Z,32.45
2023-06-12T08:52:54.228Z,32.65
2023-06-12T08:55:27.159Z,33.43
2023-06-12T08:57:55.148Z,32.64
2023-06-12T09:00:25.200Z,33.65
2023-06-12T09:02:57.919Z,34.04
2023-06-12T09:05:33.025Z,31.47
2023-06-12T09:08:04.333Z,31.82
2023-06-12T09:10:35.456Z,31.39
2023-06-12T09:13:08.234Z,30.74
2023-06-12T09:15:36.870Z,31.25
2023-06-12T09:18:12.446Z,30.39
2023-06-12T09:20:44.341Z,29.45
2023-06-12T09:23:14.725Z,29.55
2023-06-12T09:25:55.385Z,29.99
2023-06-12T09:28:40.370Z,28.90
2023-06-12T09:31:08.377Z,28.02
2023-06-12T09:33:40.437Z,27.33
2023-06-12T09:36:09.026Z,27.56
2023-06-12T09:38:38.740Z,26.90
2023-06-12T09:41:08.780Z,27.32
2023-06-12T09:43:37.086Z,27.50
2023-06-12T09:46:09.688Z,27.46
2023-06-12T09:48:39.320Z,25.26
2023-06-12T09:51:09.887Z,25.07
2023-06-12T09:53:41.276Z,25.98
2023-06-12T09:56:12.252Z,26.67
2023-06-12T09:58:41.297Z,25.65
2023-06-12T10:01:09.864Z,25.85
2023-06-12T10:03:39.925Z,26.47
2023-06-12T10:06:09.284Z,25.23
2023-06-12T10:08:39.634Z,25.85
2023-06-12T10:11:09.380Z,25.89
2023-06-12T10:13:38.115Z,25.63
2023-06-12T10:16:06.959Z,25.90
2023-06-12T10:18:36.298Z,24.50
2023-06-12T10:21:07.005Z,23.76
2023-06-12T10:23:37.384Z,23.18
2023-06-12T10:26:06.919Z,22.82
2023-06-12T10:28:37.099Z,23.80
2023-06-12T10:31:13.506Z,24.18
2023-06-12T10:33:59.541Z,22.90
2023-06-12T10:36:30.456Z,23.01
2023-06-12T10:39:05.125Z,21.82
2023-06-12T10:41:34.376Z,20.12
2023-06-12T10:44:24.847Z,20.66
2023-06-12T10:46:56.766Z,20.48
2023-06-12T10:49:24.728Z,21.77
2023-06-12T10:51:53.522Z,21.34
2023-06-12T10:54:29.609Z,20.77
2023-06-12T10:57:00.483Z,20.99
2023-06-12T10:59:36.658Z,21.30
2023-06-12T11:02:05.344Z,21.25
2023-06-12T11:04:38.714Z,21.23
2023-06-12T11:07:07.804Z,21.67
2023-06-12T11:09:44.648Z,21.77
2023-06-12T11:12:12.662Z,21.13
2023-06-12T11:14:42.258Z,21.23
2023-06-12T11:17:11.394Z,20.81
2023-06-12T11:19:39.570Z,21.81
2023-06-12T11:22:07.504Z,21.47
2023-06-12T11:24:36.452Z,21.43
2023-06-12T11:27:06.818Z,22.04
2023-06-12T11:29:48.583Z,21.37
2023-06-12T11:32:28.173Z,21.22
2023-06-12T11:34:57.200Z,21.70
2023-06-12T11:37:28.335Z,20.86
2023-06-12T11:40:09.926Z,22.18
2023-06-12T11:42:39.371Z,21.58
2023-06-12T11:45:10.807Z,20.61
2023-06-12T11:50:17.976Z,20.32
2023-06-12T11:52:49.653Z,19.76
2023-06-12T11:57:51.462Z,19.42
2023-06-12T12:00:21.849Z,19.42
2023-06-12T12:02:53.414Z,20.08
2023-06-12T12:05:24.303Z,19.75
2023-06-12T12:07:57.473Z,19.66
2023-06-12T12:10:26.430Z,19.00
2023-06-12T12:13:00.764Z,18.39
2023-06-12T12:15:30.875Z,18.73
2023-06-12T12:18:00.792Z,18.86
2023-06-12T12:20:30.862Z,18.42
2023-06-12T12:23:01.135Z,18.50
2023-06-12T12:25:29.973Z,18.97
2023-06-12T12:28:01.268Z,18.36
2023-06-12T12:30:32.308Z,18.12
2023-06-12T12:33:03.493Z,19.66
2023-06-12T12:35:31.575Z,18.68
2023-06-12T12:37:59.356Z,18.31
2023-06-12T12:40:30.082Z,18.63
2023-06-12T12:42:58.300Z,18.85
2023-06-12T12:45:27.419Z,18.55
2023-06-12T12:47:55.518Z,18.05
2023-06-12T12:50:29.022Z,18.17
2023-06-12T12:52:59.010Z,18.45
2023-06-12T12:55:27.360Z,19.14
2023-06-12T12:58:06.000Z,19.51
2023-06-12T13:00:43.535Z,18.30
2023-06-12T13:03:12.839Z,19.70
2023-06-12T13:05:42.567Z,18.91
2023-06-12T13:08:11.671Z,18.71
2023-06-12T13:10:39.804Z,19.03
2023-06-12T13:13:07.833Z,19.02
2023-06-12T13:15:35.680Z,19.08
2023-06-12T13:18:03.888Z,18.59
2023-06-12T13:20:32.058Z,19.43
2023-06-12T13:23:01.379Z,19.24
2023-06-12T13:25:29.607Z,17.96
2023-06-12T13:27:57.592Z,18.53
2023-06-12T13:30:29.099Z,18.81
2023-06-12T13:32:57.875Z,17.41
2023-06-12T13:35:26.860Z,18.04
2023-06-12T13:37:55.344Z,17.93
2023-06-12T13:40:25.114Z,17.26
2023-06-12T13:42:53.124Z,18.13
2023-06-12T13:45:20.948Z,18.28
2023-06-12T13:47:49.062Z,18.14
2023-06-12T13:50:19.855Z,18.20
2023-06-12T13:52:48.037Z,18.27
2023-06-12T13:55:16.048Z,17.89
2023-06-12T13:57:45.826Z,17.45
2023-06-12T14:00:15.297Z,17.42
2023-06-12T14:02:43.625Z,17.84
2023-06-12T14:05:11.831Z,18.02
2023-06-12T14:07:40.063Z,17.15
2023-06-12T14:10:09.843Z,17.05
2023-06-12T14:12:37.906Z,17.38
2023-06-12T14:15:07.895Z,18.28
2023-06-12T14:17:38.880Z,17.23
2023-06-12T14:20:08.442Z,17.39
2023-06-12T14:22:38.935Z,16.81
2023-06-12T14:25:07.707Z,16.23
2023-06-12T14:27:37.491Z,15.44
2023-06-12T14:30:08.893Z,14.23
2023-06-12T14:32:40.175Z,13.28
2023-06-12T14:35:10.110Z,12.17
2023-06-12T14:37:38.198Z,11.24
2023-06-12T14:40:07.105Z,10.80
2023-06-12T14:42:35.200Z,9.98
2023-06-12T14:45:03.228Z,9.39
2023-06-12T14:47:32.621Z,9.09
2023-06-12T14:50:17.529Z,8.45
2023-06-12T14:52:48.574Z,8.29
2023-06-12T14:55:17.178Z,8.46
2023-06-12T14:57:45.426Z,7.73
2023-06-12T15:00:14.099Z,7.11
2023-06-12T15:02:43.532Z,7.62
2023-06-12T15:05:13.316Z,7.63
2023-06-12T15:07:41.773Z,7.98
2023-06-12T15:10:11.503Z,7.29
2023-06-12T15:12:41.070Z,7.32
2023-06-12T15:15:13.182Z,6.75
2023-06-12T15:17:41.641Z,6.92
2023-06-12T15:20:14.335Z,6.67
2023-06-12T15:22:42.588Z,6.52
2023-06-12T15:25:11.081Z,6.26
2023-06-12T15:27:39.403Z,5.63
2023-06-12T15:30:08.734Z,6.21
2023-06-12T15:32:36.810Z,6.07
2023-06-12T15:35:05.398Z,6.89
2023-06-12T15:37:34.720Z,6.03
2023-06-12T15:40:04.986Z,6.57
2023-06-12T15:42:33.160Z,5.70
2023-06-12T15:45:01.219Z,6.32
2023-06-12T15:47:29.358Z,5.76
2023-06-12T15:49:57.463Z,5.73
2023-06-12T15:52:28.106Z,5.83
2023-06-12T15:55:00.973Z,6.14
2023-06-12T15:57:29.064Z,6.08
2023-06-12T15:59:59.460Z,6.32
2023-06-12T16:02:30.799Z,6.11
2023-06-12T16:04:59.154Z,5.95
2023-06-12T16:07:27.442Z,5.75
2023-06-12T16:09:55.577Z,5.75
2023-06-12T16:12:25.211Z,5.63
2023-06-12T16:14:53.211Z,6.33
2023-06-12T16:17:21.258Z,7.54
2023-06-12T16:19:49.359Z,7.79
2023-06-12T16:22:17.487Z,7.57
2023-06-12T16:24:46.800Z,8.10
2023-06-12T16:27:16.197Z,8.89
2023-06-12T16:29:45.717Z,9.85
2023-06-12T16:32:13.720Z,10.96
2023-06-12T16:34:41.905Z,11.91
2023-06-12T16:37:09.901Z,12.70
2023-06-12T16:39:41.776Z,13.35
2023-06-12T16:42:10.301Z,13.45
2023-06-12T16:44:38.296Z,13.82
2023-06-12T16:47:08.478Z,14.96
2023-06-12T16:49:37.443Z,15.17
2023-06-12T16:52:06.081Z,15.18
2023-06-12T16:54:34.334Z,15.53
2023-06-12T16:57:02.355Z,15.91
2023-06-12T16:59:30.075Z,16.00
2023-06-12T17:01:58.170Z,16.44
2023-06-12T17:04:30.066Z,16.38
2023-06-12T17:06:59.026Z,16.95
2023-06-12T17:09:26.822Z,16.72
2023-06-12T17:11:55.069Z,16.92
2023-06-12T17:14:23.050Z,16.36
2023-06-12T17:16:51.059Z,16.41
2023-06-12T17:19:19.121Z,15.92
2023-06-12T17:21:48.337Z,15.87
2023-06-12T17:24:16.538Z,16.33
2023-06-12T17:26:44.649Z,16.45
2023-06-12T17:29:12.980Z,16.20
2023-06-12T17:31:41.067Z,16.24
2023-06-12T17:34:09.189Z,15.82
2023-06-12T17:36:37.236Z,15.45
2023-06-12T17:39:06.669Z,14.68
2023-06-12T17:41:35.523Z,14.23
2023-06-12T17:44:05.423Z,13.63
2023-06-12T17:46:33.714Z,14.10
2023-06-12T17:49:04.117Z,14.82
2023-06-12T17:51:32.157Z,14.57
2023-06-12T17:54:00.428Z,14.55
2023-06-12T17:56:29.816Z,14.49
2023-06-12T17:58:57.834Z,13.54
2023-06-12T18:01:25.974Z,13.36
2023-06-12T18:03:54.900Z,13.44
2023-06-12T18:06:24.281Z,13.68
2023-06-12T18:08:52.390Z,13.68
2023-06-12T18:11:20.880Z,14.09
2023-06-12T18:13:50.264Z,14.14
2023-06-12T18:16:22.796Z,14.23
2023-06-12T18:18:51.799Z,14.36
2023-06-12T18:21:20.121Z,14.27
2023-06-12T18:23:48.332Z,14.22
2023-06-12T18:26:16.593Z,13.78
2023-06-12T18:28:44.600Z,14.01
2023-06-12T18:31:14.168Z,14.32
2023-06-12T18:33:42.474Z,14.88
2023-06-12T18:36:11.176Z,15.15
2023-06-12T18:38:39.683Z,15.44
2023-06-12T18:41:07.659Z,15.85
2023-06-12T18:43:35.475Z,16.29
2023-06-12T18:46:03.569Z,16.55
2023-06-12T18:48:33.020Z,17.33
2023-06-12T18:51:02.080Z,17.08
2023-06-12T18:53:30.622Z,17.25
2023-06-12T18:55:58.667Z,17.15
2023-06-12T18:58:26.814Z,16.71
2023-06-12T19:00:54.875Z,16.67
2023-06-12T19:03:23.276Z,16.63
2023-06-12T19:05:54.304Z,16.40
2023-06-12T19:08:22.455Z,16.58
2023-06-12T19:10:53.162Z,17.40
2023-06-12T19:13:25.223Z,17.59
2023-06-12T19:15:53.723Z,18.00
2023-06-12T19:18:21.806Z,18.38
2023-06-12T19:20:50.003Z,18.58
2023-06-12T19:23:28.779Z,19.06
2023-06-12T19:25:58.816Z,18.94
2023-06-12T19:28:29.623Z,19.51
2023-06-12T19:30:57.627Z,20.17
2023-06-12T19:33:26.543Z,19.98
2023-06-12T19:35:54.567Z,20.62
2023-06-12T19:38:24.832Z,20.56
2023-06-12T19:40:53.694Z,20.61
2023-06-12T19:43:22.926Z,20.59
2023-06-12T19:45:51.866Z,20.87
2023-06-12T19:48:21.662Z,20.92
2023-06-12T19:50:49.822Z,21.40
2023-06-12T19:53:18.289Z,21.28
2023-06-12T19:55:53.081Z,21.56
2023-06-12T19:58:21.537Z,21.58
2023-06-12T20:00:51.235Z,21.86
2023-06-12T20:03:19.365Z,22.66
2023-06-12T20:05:47.425Z,22.61
2023-06-12T20:08:15.486Z,22.40
2023-06-12T20:10:43.477Z,23.43
2023-06-12T20:13:12.860Z,22.90
2023-06-12T20:15:54.181Z,23.09
2023-06-12T20:18:22.185Z,23.60
2023-06-12T20:20:51.804Z,23.75
2023-06-12T20:23:20.610Z,24.09
2023-06-12T20:25:48.709Z,24.29
2023-06-12T20:28:18.449Z,23.99
2023-06-12T20:30:46.678Z,24.21
2023-06-12T20:33:14.508Z,24.35
2023-06-12T20:35:42.570Z,24.48
2023-06-12T20:38:13.130Z,24.71
2023-06-12T20:40:41.554Z,24.54
2023-06-12T20:43:12.237Z,25.12
2023-06-12T20:45:44.300Z,24.82
2023-06-12T20:48:12.369Z,24.84
2023-06-12T20:50:42.421Z,25.11
2023-06-12T20:53:12.567Z,24.92
2023-06-12T20:55:40.934Z,24.73
2023-06-12T20:58:08.946Z,25.06
2023-06-12T21:00:36.940Z,25.29
2023-06-12T21:03:06.950Z,25.29
2023-06-12T21:05:35.086Z,25.49
2023-06-12T21:08:04.972Z,25.41
2023-06-12T21:10:33.156Z,25.18
2023-06-12T21:13:00.974Z,25.29
2023-06-12T21:15:28.983Z,25.49
2023-06-12T21:17:57.296Z,25.43
2023-06-12T21:20:26.963Z,26.55
2023-06-12T21:22:57.169Z,25.96
2023-06-12T21:25:25.703Z,25.44
2023-06-12T21:27:53.778Z,25.88
2023-06-12T21:30:23.570Z,25.91
2023-06-12T21:32:52.806Z,25.95
2023-06-12T21:35:21.126Z,26.26
2023-06-12T21:37:52.802Z,26.15
2023-06-12T21:40:22.231Z,26.02
2023-06-12T21:42:51.080Z,26.27
2023-06-12T21:45:19.273Z,26.30
2023-06-12T21:47:47.097Z,26.22
2023-06-12T21:50:16.771Z,26.36
2023-06-12T21:52:49.719Z,25.95
2023-06-12T21:55:23.751Z,26.54
2023-06-12T21:57:51.932Z,26.44
2023-06-12T22:00:20.955Z,28.17
2023-06-12T22:02:49.537Z,30.90
2023-06-12T22:05:18.086Z,30.79
2023-06-12T22:07:46.430Z,30.82
2023-06-12T22:10:14.716Z,30.97
2023-06-12T22:12:47.575Z,31.63
2023-06-12T22:15:16.158Z,31.93
2023-06-12T22:17:46.707Z,32.15
2023-06-12T22:20:23.916Z,32.20
2023-06-12T22:22:52.122Z,31.96
2023-06-12T22:25:20.890Z,31.33
2023-06-12T22:27:53.945Z,31.26
2023-06-12T22:30:24.839Z,31.82
2023-06-12T22:32:54.742Z,31.81
2023-06-12T22:35:25.177Z,32.09
2023-06-12T22:37:58.731Z,31.90
2023-06-12T22:40:28.555Z,32.36
2023-06-12T22:43:00.735Z,32.38
2023-06-12T22:45:29.591Z,32.91
2023-06-12T22:47:59.078Z,32.93
2023-06-12T22:50:27.511Z,33.32
2023-06-12T22:52:58.065Z,33.62
2023-06-12T22:55:26.115Z,33.92
2023-06-12T22:57:55.470Z,33.93
2023-06-12T23:00:25.644Z,34.58
2023-06-12T23:02:53.870Z,34.85
2023-06-12T23:05:22.632Z,35.21
2023-06-12T23:07:52.688Z,35.40
2023-06-12T23:10:21.094Z,35.85
2023-06-12T23:12:49.556Z,35.54
2023-06-12T23:15:17.878Z,35.78
2023-06-12T23:17:53.475Z,36.39
2023-06-12T23:20:24.658Z,36.67
2023-06-12T23:22:54.673Z,36.63
2023-06-12T23:25:27.586Z,37.60
2023-06-12T23:28:01.625Z,37.75
2023-06-12T23:30:31.391Z,37.28
2023-06-12T23:33:01.817Z,37.56
2023-06-12T23:35:30.519Z,37.98
2023-06-12T23:38:00.576Z,38.29
2023-06-12T23:40:28.722Z,38.44
2023-06-12T23:42:58.388Z,38.42
2023-06-12T23:45:27.061Z,39.08
2023-06-12T23:47:56.521Z,39.47
2023-06-12T23:50:25.914Z,40.07
2023-06-12T23:52:54.530Z,40.34
2023-06-12T23:55:22.585Z,40.49
2023-06-12T23:57:50.582Z,40.56
